sensor_id;sensor_type;location;lat;lon;timestamp;P1;durP1;ratioP1;P2;durP2;ratioP2
1224;SDS011;602;48.000;7.840;2023-08-01T00:01:05;2.63;;;1.43;;
1224;SDS011;602;48.000;7.840;2023-08-01T00:03:31;1.80;;;1.67;;
1224;SDS011;602;48.000;7.840;2023-08-01T00:05:58;2.40;;;2.00;;
1224;SDS011;602;48.000;7.840;2023-08-01T00:08:25;2.97;;;2.10;;
1224;SDS011;602;48.000;7.840;2023-08-01T00:10:52;2.17;;;1.90;;
1224;SDS011;602;48.000;7.840;2023-08-01T00:13:20;2.10;;;1.63;;
1224;SDS011;602;48.000;7.840;2023-08-01T00:15:47;2.03;;;1.90;;
1224;SDS011;602;48.000;7.840;2023-08-01T00:18:14;2.37;;;2.17;;
1224;SDS011;602;48.000;7.840;2023-08-01T00:20:41;2.37;;;2.17;;
1224;SDS011;602;48.000;7.840;2023-08-01T00:23:07;3.17;;;2.13;;
1224;SDS011;602;48.000;7.840;2023-08-01T00:25:34;2.47;;;1.87;;
1224;SDS011;602;48.000;7.840;2023-08-01T00:28:02;1.87;;;1.60;;
1224;SDS011;602;48.000;7.840;2023-08-01T00:30:30;3.27;;;1.90;;
1224;SDS011;602;48.000;7.840;2023-08-01T00:32:57;2.10;;;1.90;;
1224;SDS011;602;48.000;7.840;2023-08-01T00:35:24;3.17;;;2.10;;
1224;SDS011;602;48.000;7.840;2023-08-01T00:37:51;2.03;;;1.67;;
1224;SDS011;602;48.000;7.840;2023-08-01T00:40:18;3.53;;;2.20;;
1224;SDS011;602;48.000;7.840;2023-08-01T00:42:44;2.13;;;1.90;;
1224;SDS011;602;48.000;7.840;2023-08-01T00:45:10;5.70;;;2.70;;
1224;SDS011;602;48.000;7.840;2023-08-01T00:47:39;1.77;;;1.60;;
1224;SDS011;602;48.000;7.840;2023-08-01T00:50:06;2.20;;;2.00;;
1224;SDS011;602;48.000;7.840;2023-08-01T00:52:34;2.43;;;2.17;;
1224;SDS011;602;48.000;7.840;2023-08-01T00:55:01;2.90;;;2.00;;
1224;SDS011;602;48.000;7.840;2023-08-01T00:57:34;2.10;;;1.63;;
1224;SDS011;602;48.000;7.840;2023-08-01T01:00:00;3.07;;;2.20;;
1224;SDS011;602;48.000;7.840;2023-08-01T01:02:27;2.47;;;1.57;;
1224;SDS011;602;48.000;7.840;2023-08-01T01:04:56;3.30;;;2.13;;
1224;SDS011;602;48.000;7.840;2023-08-01T01:07:22;2.70;;;2.30;;
1224;SDS011;602;48.000;7.840;2023-08-01T01:09:51;2.13;;;1.90;;
1224;SDS011;602;48.000;7.840;2023-08-01T01:12:18;2.40;;;2.10;;
1224;SDS011;602;48.000;7.840;2023-08-01T01:14:44;5.70;;;2.20;;
1224;SDS011;602;48.000;7.840;2023-08-01T01:17:11;3.87;;;2.27;;
1224;SDS011;602;48.000;7.840;2023-08-01T01:19:38;2.83;;;1.70;;
1224;SDS011;602;48.000;7.840;2023-08-01T01:22:07;3.17;;;2.87;;
1224;SDS011;602;48.000;7.840;2023-08-01T01:24:36;2.93;;;1.90;;
1224;SDS011;602;48.000;7.840;2023-08-01T01:27:05;3.80;;;1.97;;
1224;SDS011;602;48.000;7.840;2023-08-01T01:29:33;2.30;;;2.10;;
1224;SDS011;602;48.000;7.840;2023-08-01T01:32:00;2.70;;;2.00;;
1224;SDS011;602;48.000;7.840;2023-08-01T01:34:28;2.20;;;1.80;;
1224;SDS011;602;48.000;7.840;2023-08-01T01:36:55;3.30;;;2.03;;
1224;SDS011;602;48.000;7.840;2023-08-01T01:39:23;3.80;;;2.03;;
1224;SDS011;602;48.000;7.840;2023-08-01T01:41:50;1.90;;;1.63;;
1224;SDS011;602;48.000;7.840;2023-08-01T01:44:17;1.43;;;1.33;;
1224;SDS011;602;48.000;7.840;2023-08-01T01:46:44;4.30;;;2.17;;
1224;SDS011;602;48.000;7.840;2023-08-01T01:49:11;3.00;;;2.40;;
1224;SDS011;602;48.000;7.840;2023-08-01T01:51:38;2.90;;;1.90;;
1224;SDS011;602;48.000;7.840;2023-08-01T01:54:05;3.03;;;2.20;;
1224;SDS011;602;48.000;7.840;2023-08-01T01:56:33;2.60;;;1.83;;
1224;SDS011;602;48.000;7.840;2023-08-01T01:59:00;2.40;;;2.20;;
1224;SDS011;602;48.000;7.840;2023-08-01T02:01:27;2.27;;;2.00;;
1224;SDS011;602;48.000;7.840;2023-08-01T02:03:54;2.83;;;2.53;;
1224;SDS011;602;48.000;7.840;2023-08-01T02:06:21;1.50;;;1.40;;
1224;SDS011;602;48.000;7.840;2023-08-01T02:08:48;1.10;;;1.00;;
1224;SDS011;602;48.000;7.840;2023-08-01T02:11:15;2.20;;;1.63;;
1224;SDS011;602;48.000;7.840;2023-08-01T02:13:43;2.87;;;1.70;;
1224;SDS011;602;48.000;7.840;2023-08-01T02:16:10;1.37;;;1.27;;
1224;SDS011;602;48.000;7.840;2023-08-01T02:18:37;2.83;;;1.50;;
1224;SDS011;602;48.000;7.840;2023-08-01T02:21:03;1.70;;;1.57;;
1224;SDS011;602;48.000;7.840;2023-08-01T02:23:32;4.30;;;1.43;;
1224;SDS011;602;48.000;7.840;2023-08-01T02:26:02;4.73;;;1.83;;
1224;SDS011;602;48.000;7.840;2023-08-01T02:28:29;4.27;;;1.83;;
1224;SDS011;602;48.000;7.840;2023-08-01T02:30:57;1.73;;;1.50;;
1224;SDS011;602;48.000;7.840;2023-08-01T02:33:24;3.20;;;2.13;;
1224;SDS011;602;48.000;7.840;2023-08-01T02:35:51;2.30;;;1.80;;
1224;SDS011;602;48.000;7.840;2023-08-01T02:38:18;1.87;;;1.57;;
1224;SDS011;602;48.000;7.840;2023-08-01T02:40:45;6.00;;;1.70;;
1224;SDS011;602;48.000;7.840;2023-08-01T02:43:11;3.50;;;2.20;;
1224;SDS011;602;48.000;7.840;2023-08-01T02:45:38;1.60;;;1.50;;
1224;SDS011;602;48.000;7.840;2023-08-01T02:48:08;1.87;;;1.77;;
1224;SDS011;602;48.000;7.840;2023-08-01T02:50:36;2.77;;;2.30;;
1224;SDS011;602;48.000;7.840;2023-08-01T02:53:04;2.50;;;2.07;;
1224;SDS011;602;48.000;7.840;2023-08-01T02:55:31;2.70;;;1.90;;
1224;SDS011;602;48.000;7.840;2023-08-01T02:57:58;4.53;;;2.37;;
1224;SDS011;602;48.000;7.840;2023-08-01T03:00:25;1.60;;;1.50;;
1224;SDS011;602;48.000;7.840;2023-08-01T03:02:51;2.50;;;2.27;;
1224;SDS011;602;48.000;7.840;2023-08-01T03:05:20;2.10;;;1.90;;
1224;SDS011;602;48.000;7.840;2023-08-01T03:07:46;2.00;;;1.60;;
1224;SDS011;602;48.000;7.840;2023-08-01T03:10:13;6.23;;;1.80;;
1224;SDS011;602;48.000;7.840;2023-08-01T03:12:40;2.20;;;1.47;;
1224;SDS011;602;48.000;7.840;2023-08-01T03:15:07;2.10;;;1.90;;
1224;SDS011;602;48.000;7.840;2023-08-01T03:17:35;1.70;;;1.60;;
1224;SDS011;602;48.000;7.840;2023-08-01T03:20:02;4.10;;;2.60;;
1224;SDS011;602;48.000;7.840;2023-08-01T03:22:31;2.70;;;2.40;;
1224;SDS011;602;48.000;7.840;2023-08-01T03:24:58;5.47;;;2.33;;
1224;SDS011;602;48.000;7.840;2023-08-01T03:27:25;2.10;;;1.40;;
1224;SDS011;602;48.000;7.840;2023-08-01T03:29:53;5.63;;;1.93;;
1224;SDS011;602;48.000;7.840;2023-08-01T03:32:19;7.20;;;2.30;;
1224;SDS011;602;48.000;7.840;2023-08-01T03:34:45;2.00;;;1.47;;
1224;SDS011;602;48.000;7.840;2023-08-01T03:37:12;3.83;;;1.80;;
1224;SDS011;602;48.000;7.840;2023-08-01T03:39:41;3.73;;;2.40;;
1224;SDS011;602;48.000;7.840;2023-08-01T03:42:08;2.67;;;1.57;;
1224;SDS011;602;48.000;7.840;2023-08-01T03:44:34;1.50;;;1.40;;
1224;SDS011;602;48.000;7.840;2023-08-01T03:47:01;2.60;;;1.97;;
1224;SDS011;602;48.000;7.840;2023-08-01T03:49:29;2.20;;;1.50;;
1224;SDS011;602;48.000;7.840;2023-08-01T03:51:56;4.90;;;1.70;;
1224;SDS011;602;48.000;7.840;2023-08-01T03:54:23;2.07;;;1.30;;
1224;SDS011;602;48.000;7.840;2023-08-01T03:56:51;1.70;;;1.60;;
1224;SDS011;602;48.000;7.840;2023-08-01T03:59:18;2.63;;;1.87;;
1224;SDS011;602;48.000;7.840;2023-08-01T04:01:45;3.23;;;1.70;;
1224;SDS011;602;48.000;7.840;2023-08-01T04:04:12;2.10;;;1.90;;
1224;SDS011;602;48.000;7.840;2023-08-01T04:06:39;2.97;;;1.80;;
1224;SDS011;602;48.000;7.840;2023-08-01T04:09:06;1.50;;;1.40;;
1224;SDS011;602;48.000;7.840;2023-08-01T04:11:33;4.27;;;2.10;;
1224;SDS011;602;48.000;7.840;2023-08-01T04:14:01;3.83;;;1.73;;
1224;SDS011;602;48.000;7.840;2023-08-01T04:16:28;1.50;;;1.40;;
1224;SDS011;602;48.000;7.840;2023-08-01T04:18:54;6.63;;;2.27;;
1224;SDS011;602;48.000;7.840;2023-08-01T04:21:21;2.60;;;1.73;;
1224;SDS011;602;48.000;7.840;2023-08-01T04:23:48;1.97;;;1.77;;
1224;SDS011;602;48.000;7.840;2023-08-01T04:26:15;3.17;;;2.13;;
1224;SDS011;602;48.000;7.840;2023-08-01T04:28:42;3.30;;;2.07;;
1224;SDS011;602;48.000;7.840;2023-08-01T04:31:10;2.00;;;1.80;;
1224;SDS011;602;48.000;7.840;2023-08-01T04:33:37;2.20;;;1.97;;
1224;SDS011;602;48.000;7.840;2023-08-01T04:36:04;3.40;;;2.57;;
1224;SDS011;602;48.000;7.840;2023-08-01T04:38:31;2.00;;;1.90;;
1224;SDS011;602;48.000;7.840;2023-08-01T04:40:57;2.47;;;2.23;;
1224;SDS011;602;48.000;7.840;2023-08-01T04:43:25;2.97;;;1.90;;
1224;SDS011;602;48.000;7.840;2023-08-01T04:45:52;5.90;;;2.53;;
1224;SDS011;602;48.000;7.840;2023-08-01T04:48:20;2.10;;;1.80;;
1224;SDS011;602;48.000;7.840;2023-08-01T04:50:47;3.23;;;2.07;;
1224;SDS011;602;48.000;7.840;2023-08-01T04:53:14;1.80;;;1.70;;
1224;SDS011;602;48.000;7.840;2023-08-01T04:55:40;4.20;;;2.00;;
1224;SDS011;602;48.000;7.840;2023-08-01T04:58:07;3.60;;;2.10;;
1224;SDS011;602;48.000;7.840;2023-08-01T05:00:34;3.63;;;1.90;;
1224;SDS011;602;48.000;7.840;2023-08-01T05:03:01;3.53;;;2.10;;
1224;SDS011;602;48.000;7.840;2023-08-01T05:05:29;3.00;;;2.00;;
1224;SDS011;602;48.000;7.840;2023-08-01T05:07:56;3.03;;;1.67;;
1224;SDS011;602;48.000;7.840;2023-08-01T05:10:23;5.80;;;2.07;;
1224;SDS011;602;48.000;7.840;2023-08-01T05:12:49;3.70;;;1.97;;
1224;SDS011;602;48.000;7.840;2023-08-01T05:15:16;3.33;;;1.77;;
1224;SDS011;602;48.000;7.840;2023-08-01T05:17:43;2.50;;;1.70;;
1224;SDS011;602;48.000;7.840;2023-08-01T05:20:10;3.30;;;1.70;;
1224;SDS011;602;48.000;7.840;2023-08-01T05:22:39;2.67;;;1.80;;
1224;SDS011;602;48.000;7.840;2023-08-01T05:25:06;2.37;;;1.90;;
1224;SDS011;602;48.000;7.840;2023-08-01T05:27:33;2.40;;;1.70;;
1224;SDS011;602;48.000;7.840;2023-08-01T05:30:00;5.10;;;2.43;;
1224;SDS011;602;48.000;7.840;2023-08-01T05:32:27;4.10;;;2.43;;
1224;SDS011;602;48.000;7.840;2023-08-01T05:34:53;5.37;;;2.80;;
1224;SDS011;602;48.000;7.840;2023-08-01T05:37:20;5.43;;;3.33;;
1224;SDS011;602;48.000;7.840;2023-08-01T05:39:49;5.23;;;2.10;;
1224;SDS011;602;48.000;7.840;2023-08-01T05:42:16;3.40;;;2.13;;
1224;SDS011;602;48.000;7.840;2023-08-01T05:44:43;3.20;;;1.87;;
1224;SDS011;602;48.000;7.840;2023-08-01T05:47:09;2.53;;;2.03;;
1224;SDS011;602;48.000;7.840;2023-08-01T05:49:36;2.50;;;2.30;;
1224;SDS011;602;48.000;7.840;2023-08-01T05:52:03;3.00;;;2.20;;
1224;SDS011;602;48.000;7.840;2023-08-01T05:54:31;5.47;;;2.20;;
1224;SDS011;602;48.000;7.840;2023-08-01T05:56:59;4.83;;;2.40;;
1224;SDS011;602;48.000;7.840;2023-08-01T05:59:26;6.00;;;2.40;;
1224;SDS011;602;48.000;7.840;2023-08-01T06:01:53;4.20;;;2.23;;
1224;SDS011;602;48.000;7.840;2023-08-01T06:04:20;4.50;;;2.23;;
1224;SDS011;602;48.000;7.840;2023-08-01T06:06:46;4.13;;;2.43;;
1224;SDS011;602;48.000;7.840;2023-08-01T06:09:13;2.40;;;2.20;;
1224;SDS011;602;48.000;7.840;2023-08-01T06:11:40;3.77;;;2.50;;
1224;SDS011;602;48.000;7.840;2023-08-01T06:14:09;3.20;;;2.17;;
1224;SDS011;602;48.000;7.840;2023-08-01T06:16:36;2.73;;;2.13;;
1224;SDS011;602;48.000;7.840;2023-08-01T06:19:02;2.60;;;1.33;;
1224;SDS011;602;48.000;7.840;2023-08-01T06:21:29;5.23;;;2.03;;
1224;SDS011;602;48.000;7.840;2023-08-01T06:23:56;2.13;;;1.93;;
1224;SDS011;602;48.000;7.840;2023-08-01T06:26:23;4.43;;;3.03;;
1224;SDS011;602;48.000;7.840;2023-08-01T06:28:50;2.00;;;1.73;;
1224;SDS011;602;48.000;7.840;2023-08-01T06:31:19;4.37;;;2.90;;
1224;SDS011;602;48.000;7.840;2023-08-01T06:33:46;4.97;;;2.13;;
1224;SDS011;602;48.000;7.840;2023-08-01T06:36:13;3.33;;;2.30;;
1224;SDS011;602;48.000;7.840;2023-08-01T06:38:41;2.83;;;1.90;;
1224;SDS011;602;48.000;7.840;2023-08-01T06:41:08;3.57;;;1.83;;
1224;SDS011;602;48.000;7.840;2023-08-01T06:43:35;3.83;;;2.20;;
1224;SDS011;602;48.000;7.840;2023-08-01T06:46:03;3.60;;;2.80;;
1224;SDS011;602;48.000;7.840;2023-08-01T06:48:32;2.27;;;1.90;;
1224;SDS011;602;48.000;7.840;2023-08-01T06:50:59;3.13;;;2.10;;
1224;SDS011;602;48.000;7.840;2023-08-01T06:53:27;2.60;;;1.93;;
1224;SDS011;602;48.000;7.840;2023-08-01T06:55:54;2.40;;;1.57;;
1224;SDS011;602;48.000;7.840;2023-08-01T06:58:20;2.77;;;1.97;;
1224;SDS011;602;48.000;7.840;2023-08-01T07:00:47;2.67;;;1.60;;
1224;SDS011;602;48.000;7.840;2023-08-01T07:03:14;2.63;;;2.43;;
1224;SDS011;602;48.000;7.840;2023-08-01T07:05:43;3.17;;;1.57;;
1224;SDS011;602;48.000;7.840;2023-08-01T07:08:10;2.40;;;1.53;;
1224;SDS011;602;48.000;7.840;2023-08-01T07:10:37;3.23;;;1.80;;
1224;SDS011;602;48.000;7.840;2023-08-01T07:13:04;2.70;;;1.93;;
1224;SDS011;602;48.000;7.840;2023-08-01T07:15:31;2.20;;;2.00;;
1224;SDS011;602;48.000;7.840;2023-08-01T07:17:58;2.20;;;1.67;;
1224;SDS011;602;48.000;7.840;2023-08-01T07:20:25;2.40;;;1.47;;
1224;SDS011;602;48.000;7.840;2023-08-01T07:22:53;2.50;;;1.60;;
1224;SDS011;602;48.000;7.840;2023-08-01T07:25:20;2.90;;;2.00;;
1224;SDS011;602;48.000;7.840;2023-08-01T07:27:47;2.10;;;1.87;;
1224;SDS011;602;48.000;7.840;2023-08-01T07:30:14;2.10;;;1.80;;
1224;SDS011;602;48.000;7.840;2023-08-01T07:32:41;3.40;;;1.93;;
1224;SDS011;602;48.000;7.840;2023-08-01T07:35:08;2.43;;;1.73;;
1224;SDS011;602;48.000;7.840;2023-08-01T07:37:36;3.97;;;2.67;;
1224;SDS011;602;48.000;7.840;2023-08-01T07:40:05;2.93;;;2.07;;
1224;SDS011;602;48.000;7.840;2023-08-01T07:42:33;4.17;;;2.13;;
1224;SDS011;602;48.000;7.840;2023-08-01T07:44:59;2.30;;;1.67;;
1224;SDS011;602;48.000;7.840;2023-08-01T07:47:26;4.87;;;1.87;;
1224;SDS011;602;48.000;7.840;2023-08-01T07:49:53;2.27;;;1.67;;
1224;SDS011;602;48.000;7.840;2023-08-01T07:52:20;1.57;;;1.27;;
1224;SDS011;602;48.000;7.840;2023-08-01T07:54:47;3.43;;;2.27;;
1224;SDS011;602;48.000;7.840;2023-08-01T07:57:15;2.77;;;1.77;;
1224;SDS011;602;48.000;7.840;2023-08-01T07:59:42;2.63;;;2.03;;
1224;SDS011;602;48.000;7.840;2023-08-01T08:02:09;1.57;;;1.40;;
1224;SDS011;602;48.000;7.840;2023-08-01T08:04:36;5.80;;;1.93;;
1224;SDS011;602;48.000;7.840;2023-08-01T08:07:03;6.53;;;1.97;;
1224;SDS011;602;48.000;7.840;2023-08-01T08:09:30;4.07;;;1.90;;
1224;SDS011;602;48.000;7.840;2023-08-01T08:11:57;2.60;;;1.60;;
1224;SDS011;602;48.000;7.840;2023-08-01T08:14:25;3.17;;;2.13;;
1224;SDS011;602;48.000;7.840;2023-08-01T08:16:52;1.73;;;1.40;;
1224;SDS011;602;48.000;7.840;2023-08-01T08:19:19;2.70;;;1.57;;
1224;SDS011;602;48.000;7.840;2023-08-01T08:21:49;1.40;;;1.20;;
1224;SDS011;602;48.000;7.840;2023-08-01T08:24:16;1.97;;;1.63;;
1224;SDS011;602;48.000;7.840;2023-08-01T08:26:42;4.43;;;2.03;;
1224;SDS011;602;48.000;7.840;2023-08-01T08:29:10;1.77;;;1.60;;
1224;SDS011;602;48.000;7.840;2023-08-01T08:31:38;1.30;;;1.20;;
1224;SDS011;602;48.000;7.840;2023-08-01T08:34:05;1.83;;;1.40;;
1224;SDS011;602;48.000;7.840;2023-08-01T08:36:32;4.63;;;1.37;;
1224;SDS011;602;48.000;7.840;2023-08-01T08:38:59;1.50;;;1.30;;
1224;SDS011;602;48.000;7.840;2023-08-01T08:41:28;3.00;;;2.10;;
1224;SDS011;602;48.000;7.840;2023-08-01T08:43:59;1.20;;;1.00;;
1224;SDS011;602;48.000;7.840;2023-08-01T08:46:29;2.00;;;1.30;;
1224;SDS011;602;48.000;7.840;2023-08-01T08:49:00;1.63;;;1.43;;
1224;SDS011;602;48.000;7.840;2023-08-01T08:51:27;1.70;;;1.57;;
1224;SDS011;602;48.000;7.840;2023-08-01T08:53:56;1.47;;;1.03;;
1224;SDS011;602;48.000;7.840;2023-08-01T08:56:23;2.07;;;1.00;;
1224;SDS011;602;48.000;7.840;2023-08-01T08:58:50;1.33;;;1.23;;
1224;SDS011;602;48.000;7.840;2023-08-01T09:01:17;1.30;;;1.20;;
1224;SDS011;602;48.000;7.840;2023-08-01T09:03:44;2.10;;;1.50;;
1224;SDS011;602;48.000;7.840;2023-08-01T09:06:14;7.67;;;1.67;;
1224;SDS011;602;48.000;7.840;2023-08-01T09:08:44;1.33;;;1.10;;
1224;SDS011;602;48.000;7.840;2023-08-01T09:11:17;1.80;;;1.47;;
1224;SDS011;602;48.000;7.840;2023-08-01T09:13:43;2.00;;;1.83;;
1224;SDS011;602;48.000;7.840;2023-08-01T09:16:10;2.13;;;1.90;;
1224;SDS011;602;48.000;7.840;2023-08-01T09:18:46;1.20;;;0.97;;
1224;SDS011;602;48.000;7.840;2023-08-01T09:21:15;1.50;;;1.20;;
1224;SDS011;602;48.000;7.840;2023-08-01T09:23:44;1.00;;;1.00;;
1224;SDS011;602;48.000;7.840;2023-08-01T09:26:14;1.57;;;1.37;;
1224;SDS011;602;48.000;7.840;2023-08-01T09:28:41;2.10;;;1.40;;
1224;SDS011;602;48.000;7.840;2023-08-01T09:31:09;3.47;;;1.47;;
1224;SDS011;602;48.000;7.840;2023-08-01T09:33:37;2.00;;;1.60;;
1224;SDS011;602;48.000;7.840;2023-08-01T09:36:06;1.77;;;1.37;;
1224;SDS011;602;48.000;7.840;2023-08-01T09:38:35;1.10;;;1.00;;
1224;SDS011;602;48.000;7.840;2023-08-01T09:41:03;1.17;;;1.03;;
1224;SDS011;602;48.000;7.840;2023-08-01T09:43:34;2.67;;;1.40;;
1224;SDS011;602;48.000;7.840;2023-08-01T09:46:01;3.80;;;1.50;;
1224;SDS011;602;48.000;7.840;2023-08-01T09:48:29;1.30;;;1.20;;
1224;SDS011;602;48.000;7.840;2023-08-01T09:51:04;1.70;;;1.40;;
1224;SDS011;602;48.000;7.840;2023-08-01T09:53:32;2.30;;;1.00;;
1224;SDS011;602;48.000;7.840;2023-08-01T09:56:01;1.40;;;1.30;;
1224;SDS011;602;48.000;7.840;2023-08-01T09:58:30;1.53;;;1.20;;
1224;SDS011;602;48.000;7.840;2023-08-01T10:00:59;1.30;;;1.20;;
1224;SDS011;602;48.000;7.840;2023-08-01T10:03:27;1.57;;;1.27;;
1224;SDS011;602;48.000;7.840;2023-08-01T10:05:55;2.03;;;1.30;;
1224;SDS011;602;48.000;7.840;2023-08-01T10:08:24;1.97;;;1.53;;
1224;SDS011;602;48.000;7.840;2023-08-01T10:10:58;1.63;;;1.40;;
1224;SDS011;602;48.000;7.840;2023-08-01T10:13:29;3.57;;;1.70;;
1224;SDS011;602;48.000;7.840;2023-08-01T10:15:58;2.40;;;1.70;;
1224;SDS011;602;48.000;7.840;2023-08-01T10:18:26;1.33;;;1.13;;
1224;SDS011;602;48.000;7.840;2023-08-01T10:20:55;2.00;;;1.50;;
1224;SDS011;602;48.000;7.840;2023-08-01T10:23:29;1.53;;;1.40;;
1224;SDS011;602;48.000;7.840;2023-08-01T10:25:57;2.50;;;1.27;;
1224;SDS011;602;48.000;7.840;2023-08-01T10:28:34;1.80;;;1.17;;
1224;SDS011;602;48.000;7.840;2023-08-01T10:31:07;4.30;;;1.63;;
1224;SDS011;602;48.000;7.840;2023-08-01T10:33:36;2.40;;;1.07;;
1224;SDS011;602;48.000;7.840;2023-08-01T10:36:12;1.80;;;1.30;;
1224;SDS011;602;48.000;7.840;2023-08-01T10:38:46;1.10;;;1.00;;
1224;SDS011;602;48.000;7.840;2023-08-01T10:41:21;1.40;;;1.30;;
1224;SDS011;602;48.000;7.840;2023-08-01T10:44:05;1.17;;;1.10;;
1224;SDS011;602;48.000;7.840;2023-08-01T10:46:49;1.33;;;1.23;;
1224;SDS011;602;48.000;7.840;2023-08-01T10:49:17;1.00;;;0.90;;
1224;SDS011;602;48.000;7.840;2023-08-01T10:51:45;2.07;;;1.13;;
1224;SDS011;602;48.000;7.840;2023-08-01T10:54:19;2.03;;;1.37;;
1224;SDS011;602;48.000;7.840;2023-08-01T10:56:49;1.53;;;1.00;;
1224;SDS011;602;48.000;7.840;2023-08-01T10:59:17;2.37;;;1.33;;
1224;SDS011;602;48.000;7.840;2023-08-01T11:01:45;1.23;;;0.80;;
1224;SDS011;602;48.000;7.840;2023-08-01T11:04:13;2.70;;;1.67;;
1224;SDS011;602;48.000;7.840;2023-08-01T11:06:47;2.00;;;1.40;;
1224;SDS011;602;48.000;7.840;2023-08-01T11:09:19;1.10;;;1.00;;
1224;SDS011;602;48.000;7.840;2023-08-01T11:11:48;2.10;;;1.20;;
1224;SDS011;602;48.000;7.840;2023-08-01T11:14:19;0.77;;;0.60;;
1224;SDS011;602;48.000;7.840;2023-08-01T11:16:47;1.00;;;0.90;;
1224;SDS011;602;48.000;7.840;2023-08-01T11:19:18;1.37;;;0.93;;
1224;SDS011;602;48.000;7.840;2023-08-01T11:21:46;0.70;;;0.70;;
1224;SDS011;602;48.000;7.840;2023-08-01T11:24:13;0.93;;;0.90;;
1224;SDS011;602;48.000;7.840;2023-08-01T11:26:41;1.00;;;1.00;;
1224;SDS011;602;48.000;7.840;2023-08-01T11:29:10;0.93;;;0.90;;
1224;SDS011;602;48.000;7.840;2023-08-01T11:31:37;1.17;;;1.07;;
1224;SDS011;602;48.000;7.840;2023-08-01T11:34:04;1.27;;;1.17;;
1224;SDS011;602;48.000;7.840;2023-08-01T11:36:33;3.30;;;1.30;;
1224;SDS011;602;48.000;7.840;2023-08-01T11:39:00;1.67;;;1.13;;
1224;SDS011;602;48.000;7.840;2023-08-01T11:41:28;1.40;;;1.10;;
1224;SDS011;602;48.000;7.840;2023-08-01T11:43:55;1.10;;;1.00;;
1224;SDS011;602;48.000;7.840;2023-08-01T11:46:31;4.37;;;1.10;;
1224;SDS011;602;48.000;7.840;2023-08-01T11:49:00;1.30;;;1.20;;
1224;SDS011;602;48.000;7.840;2023-08-01T11:51:27;1.20;;;0.80;;
1224;SDS011;602;48.000;7.840;2023-08-01T11:54:00;0.90;;;0.70;;
1224;SDS011;602;48.000;7.840;2023-08-01T11:56:27;1.00;;;0.90;;
1224;SDS011;602;48.000;7.840;2023-08-01T11:58:54;0.90;;;0.80;;
1224;SDS011;602;48.000;7.840;2023-08-01T12:01:21;0.77;;;0.77;;
1224;SDS011;602;48.000;7.840;2023-08-01T12:03:50;1.53;;;0.57;;
1224;SDS011;602;48.000;7.840;2023-08-01T12:06:18;0.97;;;0.70;;
1224;SDS011;602;48.000;7.840;2023-08-01T12:08:47;0.80;;;0.60;;
1224;SDS011;602;48.000;7.840;2023-08-01T12:11:18;0.73;;;0.70;;
1224;SDS011;602;48.000;7.840;2023-08-01T12:13:46;0.67;;;0.67;;
1224;SDS011;602;48.000;7.840;2023-08-01T12:16:13;0.60;;;0.50;;
1224;SDS011;602;48.000;7.840;2023-08-01T12:18:44;0.63;;;0.47;;
1224;SDS011;602;48.000;7.840;2023-08-01T12:21:13;1.03;;;0.60;;
1224;SDS011;602;48.000;7.840;2023-08-01T12:23:40;6.33;;;0.67;;
1224;SDS011;602;48.000;7.840;2023-08-01T12:26:07;0.60;;;0.50;;
1224;SDS011;602;48.000;7.840;2023-08-01T12:28:34;0.40;;;0.40;;
1224;SDS011;602;48.000;7.840;2023-08-01T12:31:01;1.00;;;0.77;;
1224;SDS011;602;48.000;7.840;2023-08-01T12:33:29;1.43;;;0.70;;
1224;SDS011;602;48.000;7.840;2023-08-01T12:35:56;0.43;;;0.43;;
1224;SDS011;602;48.000;7.840;2023-08-01T12:38:24;0.50;;;0.50;;
1224;SDS011;602;48.000;7.840;2023-08-01T12:40:51;0.50;;;0.50;;
1224;SDS011;602;48.000;7.840;2023-08-01T12:43:18;1.27;;;0.60;;
1224;SDS011;602;48.000;7.840;2023-08-01T12:45:46;1.03;;;0.90;;
1224;SDS011;602;48.000;7.840;2023-08-01T12:48:14;0.97;;;0.63;;
1224;SDS011;602;48.000;7.840;2023-08-01T12:50:43;0.57;;;0.57;;
1224;SDS011;602;48.000;7.840;2023-08-01T12:53:11;0.53;;;0.50;;
1224;SDS011;602;48.000;7.840;2023-08-01T12:55:40;0.73;;;0.73;;
1224;SDS011;602;48.000;7.840;2023-08-01T12:58:09;0.70;;;0.70;;
1224;SDS011;602;48.000;7.840;2023-08-01T13:00:35;0.60;;;0.60;;
1224;SDS011;602;48.000;7.840;2023-08-01T13:03:03;0.83;;;0.70;;
1224;SDS011;602;48.000;7.840;2023-08-01T13:05:29;0.83;;;0.57;;
1224;SDS011;602;48.000;7.840;2023-08-01T13:07:56;0.50;;;0.50;;
1224;SDS011;602;48.000;7.840;2023-08-01T13:10:23;0.80;;;0.80;;
1224;SDS011;602;48.000;7.840;2023-08-01T13:12:52;0.63;;;0.63;;
1224;SDS011;602;48.000;7.840;2023-08-01T13:15:19;0.60;;;0.60;;
1224;SDS011;602;48.000;7.840;2023-08-01T13:17:46;1.53;;;0.90;;
1224;SDS011;602;48.000;7.840;2023-08-01T13:20:12;0.80;;;0.63;;
1224;SDS011;602;48.000;7.840;2023-08-01T13:22:40;1.43;;;1.00;;
1224;SDS011;602;48.000;7.840;2023-08-01T13:25:07;3.93;;;1.43;;
1224;SDS011;602;48.000;7.840;2023-08-01T13:27:34;2.80;;;1.60;;
1224;SDS011;602;48.000;7.840;2023-08-01T13:30:03;1.60;;;1.50;;
1224;SDS011;602;48.000;7.840;2023-08-01T13:32:30;0.80;;;0.80;;
1224;SDS011;602;48.000;7.840;2023-08-01T13:34:57;1.07;;;0.93;;
1224;SDS011;602;48.000;7.840;2023-08-01T13:37:24;1.10;;;1.10;;
1224;SDS011;602;48.000;7.840;2023-08-01T13:39:51;1.73;;;1.10;;
1224;SDS011;602;48.000;7.840;2023-08-01T13:42:18;1.23;;;1.00;;
1224;SDS011;602;48.000;7.840;2023-08-01T13:44:45;1.17;;;0.97;;
1224;SDS011;602;48.000;7.840;2023-08-01T13:47:14;1.03;;;0.83;;
1224;SDS011;602;48.000;7.840;2023-08-01T13:49:41;1.00;;;0.70;;
1224;SDS011;602;48.000;7.840;2023-08-01T13:52:07;0.90;;;0.90;;
1224;SDS011;602;48.000;7.840;2023-08-01T13:54:35;0.70;;;0.60;;
1224;SDS011;602;48.000;7.840;2023-08-01T13:57:02;0.73;;;0.73;;
1224;SDS011;602;48.000;7.840;2023-08-01T13:59:33;0.73;;;0.60;;
1224;SDS011;602;48.000;7.840;2023-08-01T14:02:06;1.33;;;0.73;;
1224;SDS011;602;48.000;7.840;2023-08-01T14:04:35;2.07;;;0.83;;
1224;SDS011;602;48.000;7.840;2023-08-01T14:07:02;0.60;;;0.60;;
1224;SDS011;602;48.000;7.840;2023-08-01T14:09:30;1.13;;;0.83;;
1224;SDS011;602;48.000;7.840;2023-08-01T14:11:57;1.07;;;0.97;;
1224;SDS011;602;48.000;7.840;2023-08-01T14:14:26;0.60;;;0.60;;
1224;SDS011;602;48.000;7.840;2023-08-01T14:16:53;1.17;;;0.93;;
1224;SDS011;602;48.000;7.840;2023-08-01T14:19:21;0.40;;;0.40;;
1224;SDS011;602;48.000;7.840;2023-08-01T14:21:49;0.70;;;0.70;;
1224;SDS011;602;48.000;7.840;2023-08-01T14:24:16;0.60;;;0.60;;
1224;SDS011;602;48.000;7.840;2023-08-01T14:26:47;1.07;;;0.90;;
1224;SDS011;602;48.000;7.840;2023-08-01T14:29:16;1.00;;;0.90;;
1224;SDS011;602;48.000;7.840;2023-08-01T14:31:51;0.70;;;0.70;;
1224;SDS011;602;48.000;7.840;2023-08-01T14:34:19;1.30;;;0.80;;
1224;SDS011;602;48.000;7.840;2023-08-01T14:36:47;1.50;;;0.60;;
1224;SDS011;602;48.000;7.840;2023-08-01T14:39:24;0.80;;;0.80;;
1224;SDS011;602;48.000;7.840;2023-08-01T14:41:52;1.80;;;0.70;;
1224;SDS011;602;48.000;7.840;2023-08-01T14:44:21;1.60;;;1.17;;
1224;SDS011;602;48.000;7.840;2023-08-01T14:46:48;0.90;;;0.83;;
1224;SDS011;602;48.000;7.840;2023-08-01T14:49:15;0.90;;;0.87;;
1224;SDS011;602;48.000;7.840;2023-08-01T14:51:42;2.43;;;0.93;;
1224;SDS011;602;48.000;7.840;2023-08-01T14:54:09;2.30;;;1.37;;
1224;SDS011;602;48.000;7.840;2023-08-01T14:56:37;0.90;;;0.80;;
1224;SDS011;602;48.000;7.840;2023-08-01T14:59:04;1.40;;;1.10;;
1224;SDS011;602;48.000;7.840;2023-08-01T15:01:31;0.97;;;0.87;;
1224;SDS011;602;48.000;7.840;2023-08-01T15:03:57;0.80;;;0.80;;
1224;SDS011;602;48.000;7.840;2023-08-01T15:06:24;0.90;;;0.90;;
1224;SDS011;602;48.000;7.840;2023-08-01T15:08:51;1.10;;;1.00;;
1224;SDS011;602;48.000;7.840;2023-08-01T15:11:18;0.77;;;0.77;;
1224;SDS011;602;48.000;7.840;2023-08-01T15:13:46;1.10;;;1.00;;
1224;SDS011;602;48.000;7.840;2023-08-01T15:16:13;1.70;;;0.93;;
1224;SDS011;602;48.000;7.840;2023-08-01T15:18:40;1.00;;;0.60;;
1224;SDS011;602;48.000;7.840;2023-08-01T15:21:07;1.87;;;1.13;;
1224;SDS011;602;48.000;7.840;2023-08-01T15:23:34;0.90;;;0.87;;
1224;SDS011;602;48.000;7.840;2023-08-01T15:26:01;0.80;;;0.80;;
1224;SDS011;602;48.000;7.840;2023-08-01T15:28:28;0.87;;;0.87;;
1224;SDS011;602;48.000;7.840;2023-08-01T15:31:06;0.80;;;0.80;;
1224;SDS011;602;48.000;7.840;2023-08-01T15:33:34;1.10;;;1.00;;